KISN/ISN METAR and TAF weather

Enter ICAO airport designator
Station Type Date Time Source
KISN METAR 2019/10/14 05:52 UTC NOAA

KISN 140552Z AUTO 15006KT 10SM CLR M01/M07 A2984 RMK AO2 SLP970 T10061067 10072 21011 400941050 58006 TSNO $


Station Type Date Time Source
KISN Decoded METAR 2019/10/14 05:52 UTC NOAA

SLOULIN FIELD INTERNATIONAL AIRPORT, ND, United States (KISN) 48-11N 103-39W 579M
Oct 14, 2019 - 01:52 AM EDT / 2019.10.14 0552 UTC
Wind: from the SSE (150 degrees) at 7 MPH (6 KT):0
Visibility: 10 mile(s):0
Sky conditions: clear
Temperature: 30.9 F (-0.6 C)
Windchill: 24 F (-4 C):1
Dew Point: 19.9 F (-6.7 C)
Relative Humidity: 63%
Pressure (altimeter): 29.84 in. Hg (1010 hPa)
Pressure tendency: 0.02 inches (0.6 hPa) lower than three hours ago
ob: KISN 140552Z AUTO 15006KT 10SM CLR M01/M07 A2984 RMK AO2 SLP970 T10061067 10072 21011 400941050 58006 TSNO
cycle: 6

Station Type Date Time Source
KISN TAF 2019/10/13 06:24 UTC NOAA

TAF KISN 130521Z 1306/1406 34009KT P6SM BKN035
FM131300 30006KT P6SM SCT060
FM140100 VRB04KT P6SM SCT250

Example: see airport list